默认 日期 大小 文件数 浏览量 最新下载 xml
ant-磁力链接相关资源由用户搜索指令自动获取,结果来源于网络,本站不存储任何资料,亦不承担任何责任,请于24小时内删除,搜索到8434个磁力,显示前4000条数据,用时4ms。
    ... 效中英字幕.Ant.Man.and.the.Wasp.2018 ...
创建时间: 2018-11-04 18:00:40 大小:2.61 GB 文件数量:4 热度:69 最近下载:2025-10-10 12:57:03
    {"Downloaded from www.ETTV.tv .txt": 278, "ant-man.and.the.wasp.2018.french.bdrip.x264-venue.nfo": 220, "ant-man.and.the.wasp.2018.french.bdrip.x264-venue.sfv": 3008, "Ant-Man.and.the.Wasp.2018.FRENCH.BDRip.x264-VENUE[EtMovies].mkv": 699769445}
创建时间: 2018-11-04 18:24:01 大小:667.36 MB 文件数量:4 热度:23 最近下载:2025-01-27 19:09:03
    {"cover.jpg": 767000, "04. Ant 247.flac": 8174823, "audiochecker.log": ... .flac": 14739722, "01. Theme from Ant-Man.flac": 18756225, "05. Paraponera ...
创建时间: 2018-11-04 20:20:26 大小:353.98 MB 文件数量:33 热度:19 最近下载:2025-08-01 05:11:07
    {"Torrent9.html": 429, "Bluray 720p - 1080p.html": 481, "Ant Man 2015 1080p VFF EN x264 ac3 mHDgz.mkv": 3522553475}
创建时间: 2018-11-04 21:44:44 大小:3.28 GB 文件数量:3 热度:15 最近下载:2025-03-02 15:48:01
    ... SHELL - SPEEDSHELL.PL.jpg": 229004}, "Ant.Man.and.the.Wasp.2018 ...
创建时间: 2018-11-04 22:06:43 大小:832.84 MB 文件数量:6 热度:13 最近下载:2025-03-17 16:55:01
    ... .srt": 196288}, "Sample,Screens": {"Ant-Man 2015 Screen 01.png ... Screen 12.png": 1916280, "Ant-Man 2015 BluRay 1080p AVC ... mkv": 102495700}, "Box Cover,Poster": {"Ant-Man 2015 Poster.jpg": 910808 ... ExtraTorrent.cc.txt": 352, "Ant-Man 2015 BluRay 1080p AVC ...
创建时间: 2018-11-04 22:57:45 大小:11.32 GB 文件数量:26 热度:26 最近下载:2025-03-09 14:56:03
    {"TorrentRapid.url": 113, "DESCARGAS2020.url": 124, "TuMejorTorrent.url": 129, "Ant-Man y La Avispa [BluRay Screener][Castellano][2018][www.descargas2020.com].avi": 2102126592}
创建时间: 2018-11-05 00:01:08 大小:1.96 GB 文件数量:4 热度:13 最近下载:2025-03-19 11:48:02
    {"Przeczytaj!!!!.txt": 5034, "Ant.Man.2015.PLDUB.BDRip.XviD.KiT.avi": 734564352, "Wiecej fajnych torrentow i warezow zapraszam.url": 113}
创建时间: 2018-11-05 00:17:52 大小:700.54 MB 文件数量:3 热度:19 最近下载:2025-02-05 05:35:02
    {"sample.avi": 14258176, "Downloaded from www.ETTV.tv .txt": 185, "Ant-Man and the Wasp 2018.HDCAM V.2.XViD.AC3-ETRG.avi": 1344984190}
创建时间: 2018-11-05 00:30:33 大小:1.27 GB 文件数量:3 热度:14 最近下载:2025-01-21 09:57:05
    {"Sample.mkv": 24224873, "Hon3yHD.com.txt": 39, "Torrent Seed By www.cyber-planet.in.txt": 92, "Ant-Man And The Wasp 2018 1080p BluRay x264 DTS 5.1 MSubS - Hon3yHD.mkv": 4697003075}
创建时间: 2018-11-05 00:38:54 大小:4.4 GB 文件数量:4 热度:16 最近下载:2025-05-14 08:31:02
    {"Sample": {"antmanwasp.jfkdvd.sample.vob": 47454208}, "antmanwasp.jfkdvd.nfo": 14941, "antmanwasp.jfkdvd.r00": 50000000, "antmanwasp.jfkdvd.r01": 50000000, "antmanwasp.jfkdvd.r02": 50000000, "antmanwasp.jfkdvd.r03": 50000000, "antmanwasp.jfkdvd.r04": ...
创建时间: 2018-11-05 00:55:57 大小:4.46 GB 文件数量:98 热度:16 最近下载:2025-06-01 08:54:01
    {"Ant-Man.and.The.Wasp.2018.720p.TS.Eng.mp4": 2627395824, "Torrent Downloaded From www.torrenting.com.txt": 73}
创建时间: 2018-11-05 01:08:10 大小:2.45 GB 文件数量:2 热度:18 最近下载:2025-03-20 03:38:03
    {"sample.avi": 5244928, "Ant.Man.2015.DVDRip.XviD.AC3-EVO.avi": 1528716468, "Ant.Man.2015.DVDRip.XviD.AC3-EVO.nfo": 2346}
创建时间: 2018-11-05 02:01:35 大小:1.43 GB 文件数量:3 热度:12 最近下载:2025-01-22 19:03:02
    {"Ant.Man.and.the.Wasp.2018.WEB-DL.XviD.MP3-FGT.avi": 2161598374, "Ant.Man.and.the.Wasp.2018.WEB-DL.XviD.MP3-FGT.srt": 104561}
创建时间: 2018-11-05 02:14:57 大小:2.01 GB 文件数量:2 热度:11 最近下载:2025-05-07 06:10:02
    {"Subs": {"Ant-Man.2015.720p.BluRay.x264.[YTS.AG]-bos.srt": 85553}, "Ant-Man.2015.720p.BluRay.x264.[YTS.AG].mp4": 794620165}
创建时间: 2018-11-05 02:29:47 大小:757.89 MB 文件数量:2 热度:10 最近下载:2025-01-04 20:46:09
    ... (featuring Tank).MP3": 3457776, "Dj Ant lo - Pussy Fiend (Print).jpg ...
创建时间: 2018-11-05 02:54:48 大小:66.55 MB 文件数量:22 热度:14 最近下载:2025-10-02 15:56:03
    {"Cover.jpg": 109402, "Tracklist.txt": 519, "02 - Next - Wifey.mp3": 4842759, "12 - 112 - Player.mp3": 5582546, "09 - LSG - My Body.mp3": 4922695, "MixtapeTorrent.com.URL": 56, "01 - Ideal - Whatever.mp3": 4542358, "03 - Next - Too Close.mp3": 5082571, "06 ...
创建时间: 2018-11-05 03:01:38 大小:89.39 MB 文件数量:22 热度:18 最近下载:2025-08-04 09:13:03
    {"nfo.txt": 3962, "Ant-Man.and.the.Wasp.2018.720p.BRRip.x264.MkvCage.mkv": 1151705832}
创建时间: 2018-11-05 03:06:58 大小:1.07 GB 文件数量:2 热度:15 最近下载:2025-01-04 20:46:06
    {"alt-torrent.com.mp4": 4001994, "POR FAVOR!.....COMPARTAN!.txt": 117, "Ant-Man and the Wasp (2018) 1080p LAT - ZeiZ.jpg": 96127, "Ant-Man and the Wasp (2018) 1080p LAT - ZeiZ.mkv": 4337861464}
创建时间: 2018-11-05 03:49:25 大小:4.04 GB 文件数量:4 热度:10 最近下载:2025-02-24 09:54:03
    {"AgusiQ.gif": 1700262, "AgusiQ Zaprasza.url": 125, "AgusiQ-Torrents The Best.avi": 6836184, "Ant-Man.and.the.Wasp.2018.PLDUB.MD.WEB-DL.XviD-KiT.avi": 733822976, "Torrent downloaded from agusiq-torrents.pl upload AQ.txt": 3943}
创建时间: 2018-11-05 05:00:37 大小:707.97 MB 文件数量:5 热度:17 最近下载:2025-10-14 01:43:02